Time;durP1;ratioP1;P1;durP2;ratioP2;P2;SDS_P1;SDS_P2;PMS_P1;PMS_P2;Temp;Humidity;BMP_temperature;BMP_pressure;BME280_temperature;BME280_humidity;BME280_pressure;Samples;Min_cycle;Max_cycle;Signal;HPM_P1;HPM_P2
2024/01/20 00:00:03;;;;;;;6.70;3.22;;;;;;;0.87;100.00;101846.13;4949215;28;20042;-74
2024/01/20 00:02:31;;;;;;;8.32;3.50;;;;;;;0.86;100.00;101849.78;4953271;28;20082;-75
2024/01/20 00:04:57;;;;;;;8.00;3.17;;;;;;;0.93;100.00;101861.25;4938704;28;20042;-77
2024/01/20 00:07:23;;;;;;;10.45;3.67;;;;;;;0.92;100.00;101854.34;4959763;28;20875;-74
2024/01/20 00:09:48;;;;;;;6.57;3.70;;;;;;;0.91;100.00;101853.53;4955771;28;20520;-77
2024/01/20 00:12:14;;;;;;;8.73;3.80;;;;;;;0.93;100.00;101855.97;4950977;28;20039;-78
2024/01/20 00:14:40;;;;;;;6.25;3.20;;;;;;;0.91;100.00;101852.72;4952625;28;20372;-76
2024/01/20 00:17:05;;;;;;;8.25;3.25;;;;;;;0.93;100.00;101855.97;4941939;28;20039;-78
2024/01/20 00:19:31;;;;;;;7.32;3.35;;;;;;;0.95;100.00;101853.97;4937184;28;20801;-75
2024/01/20 00:21:56;;;;;;;9.60;3.75;;;;;;;0.97;100.00;101858.09;4955626;28;20042;-76
2024/01/20 00:24:22;;;;;;;9.68;4.05;;;;;;;0.98;100.00;101848.34;4958825;28;20046;-76
2024/01/20 00:26:48;;;;;;;8.18;3.50;;;;;;;0.98;100.00;101853.63;4956296;28;20054;-78
2024/01/20 00:29:14;;;;;;;7.90;4.15;;;;;;;0.98;100.00;101848.34;4948807;28;20047;-76
2024/01/20 00:31:39;;;;;;;7.93;3.10;;;;;;;0.93;100.00;101850.69;4962667;28;20033;-73
2024/01/20 00:34:05;;;;;;;7.43;3.42;;;;;;;0.95;100.00;101859.25;4938012;28;20094;-75
2024/01/20 00:36:31;;;;;;;8.30;3.70;;;;;;;0.92;100.00;101859.63;4940134;28;20842;-74
2024/01/20 00:38:56;;;;;;;10.70;3.53;;;;;;;0.94;100.00;101852.34;4935995;28;20035;-75
2024/01/20 00:41:22;;;;;;;7.22;3.85;;;;;;;0.96;100.00;101863.56;4951589;28;20089;-73
2024/01/20 00:43:48;;;;;;;8.77;3.70;;;;;;;0.97;100.00;101868.63;4953871;28;20615;-77
2024/01/20 00:46:14;;;;;;;12.55;4.60;;;;;;;0.98;100.00;101866.81;4951822;28;20075;-75
2024/01/20 00:48:39;;;;;;;9.82;3.70;;;;;;;0.96;100.00;101866.19;4935119;28;20043;-76
2024/01/20 00:51:05;;;;;;;11.38;3.88;;;;;;;0.98;100.00;101864.19;4948784;28;20038;-73
2024/01/20 00:53:32;;;;;;;6.40;3.53;;;;;;;0.97;100.00;101867.81;4951588;28;20047;-75
2024/01/20 00:55:58;;;;;;;8.38;3.97;;;;;;;0.97;100.00;101865.19;4934603;28;20043;-74
2024/01/20 00:58:23;;;;;;;8.30;4.03;;;;;;;0.96;100.00;101872.28;4931584;28;20039;-73
2024/01/20 01:00:49;;;;;;;8.77;4.30;;;;;;;0.95;100.00;101875.91;4956361;28;20364;-74
2024/01/20 01:03:15;;;;;;;7.32;3.70;;;;;;;0.95;100.00;101875.91;4938408;28;20034;-75
2024/01/20 01:05:41;;;;;;;7.93;3.80;;;;;;;0.96;100.00;101882.81;4959830;28;20030;-77
2024/01/20 01:08:06;;;;;;;8.07;3.72;;;;;;;0.99;100.00;101894.84;4939604;28;20042;-77
2024/01/20 01:10:33;;;;;;;8.70;4.18;;;;;;;0.99;100.00;101897.47;4935961;28;20099;-76
2024/01/20 01:12:59;;;;;;;8.60;4.35;;;;;;;1.03;100.00;101896.13;4939413;28;20047;-78
2024/01/20 01:15:24;;;;;;;8.70;4.32;;;;;;;1.02;100.00;101910.31;4955763;28;20039;-74
2024/01/20 01:17:50;;;;;;;9.43;4.07;;;;;;;1.02;100.00;101897.13;4952921;28;20035;-74
2024/01/20 01:20:16;;;;;;;12.13;4.78;;;;;;;1.04;100.00;101910.94;4953868;28;20074;-74
2024/01/20 01:22:42;;;;;;;8.32;4.22;;;;;;;1.01;100.00;101916.56;4930514;28;20070;-82
2024/01/20 01:25:09;;;;;;;9.32;4.40;;;;;;;1.01;100.00;101919.22;4960583;28;20492;-75
2024/01/20 01:27:35;;;;;;;12.27;4.90;;;;;;;1.02;100.00;101918.22;4940099;28;20043;-76
2024/01/20 01:30:01;;;;;;;12.68;5.13;;;;;;;1.02;100.00;101923.50;4937068;28;20043;-76
2024/01/20 01:32:27;;;;;;;11.75;4.80;;;;;;;1.02;100.00;101923.50;4954150;28;20046;-75
2024/01/20 01:34:54;;;;;;;12.32;4.75;;;;;;;1.00;100.00;101930.75;4958097;28;20038;-75
2024/01/20 01:37:20;;;;;;;9.68;4.72;;;;;;;0.98;100.00;101930.94;4939578;28;20047;-76
2024/01/20 01:39:46;;;;;;;11.57;4.72;;;;;;;0.98;100.00;101932.75;4955107;28;20877;-77
2024/01/20 01:42:12;;;;;;;11.75;5.28;;;;;;;0.93;100.00;101930.66;4954111;28;20061;-77
2024/01/20 01:44:38;;;;;;;9.68;4.40;;;;;;;0.96;100.00;101945.31;4953568;28;20061;-78
2024/01/20 01:47:04;;;;;;;10.20;5.95;;;;;;;0.98;100.00;101938.03;4948664;28;20060;-75
2024/01/20 01:49:29;;;;;;;9.98;5.43;;;;;;;0.96;100.00;101940.88;4953273;28;20043;-76
2024/01/20 01:51:55;;;;;;;10.40;6.90;;;;;;;0.97;100.00;101941.69;4948628;28;20054;-74
2024/01/20 01:54:21;;;;;;;11.93;8.05;;;;;;;0.97;100.00;101946.94;4934663;28;20082;-76
2024/01/20 01:56:50;;;;;;;11.65;7.75;;;;;;;0.97;100.00;101953.06;4937979;28;20139;-76
2024/01/20 01:59:17;;;;;;;12.43;6.53;;;;;;;0.96;100.00;101942.69;4943726;28;20043;-74
2024/01/20 02:01:46;;;;;;;9.82;6.18;;;;;;;0.96;100.00;101953.22;4953273;28;20199;-77
2024/01/20 02:04:12;;;;;;;13.15;6.70;;;;;;;0.93;100.00;101950.94;4937507;28;20050;-76
2024/01/20 02:06:37;;;;;;;10.55;5.88;;;;;;;0.95;100.00;101956.84;4951048;28;20750;-78
2024/01/20 02:09:04;;;;;;;12.55;6.90;;;;;;;0.91;100.00;101952.94;4939667;28;20046;-76
2024/01/20 02:11:31;;;;;;;14.70;6.82;;;;;;;0.89;100.00;101962.84;4953540;28;20058;-76
2024/01/20 02:13:57;;;;;;;10.32;5.68;;;;;;;0.87;100.00;101956.91;4959127;28;20175;-78
2024/01/20 02:16:23;;;;;;;13.90;7.50;;;;;;;0.82;100.00;101954.81;4955939;28;20043;-77
2024/01/20 02:18:49;;;;;;;13.93;6.95;;;;;;;0.84;100.00;101962.53;4957768;28;20093;-79
2024/01/20 02:21:15;;;;;;;11.85;6.15;;;;;;;0.81;100.00;101959.28;4955798;28;20428;-75
2024/01/20 02:23:46;;;;;;;13.60;6.78;;;;;;;0.80;100.00;101978.69;4961886;28;20062;-80
2024/01/20 02:26:11;;;;;;;10.63;6.68;;;;;;;0.80;100.00;101972.59;4960794;28;20094;-75
2024/01/20 02:28:37;;;;;;;12.73;7.13;;;;;;;0.78;100.00;101964.06;4924506;29;20436;-77
2024/01/20 02:31:03;;;;;;;13.90;6.25;;;;;;;0.78;100.00;101970.16;4951995;28;20512;-75
2024/01/20 02:33:29;;;;;;;11.15;7.03;;;;;;;0.84;100.00;101967.81;4958811;28;20035;-77
2024/01/20 02:35:54;;;;;;;12.90;6.85;;;;;;;0.85;100.00;101961.53;4957650;28;20042;-76
2024/01/20 02:38:20;;;;;;;14.98;7.18;;;;;;;0.82;100.00;101971.47;4943522;28;20046;-76
2024/01/20 02:40:45;;;;;;;11.15;6.82;;;;;;;0.82;100.00;101965.38;4958742;28;20027;-76
2024/01/20 02:43:11;;;;;;;12.75;7.60;;;;;;;0.84;100.00;101968.63;4954080;28;20464;-76
2024/01/20 02:45:37;;;;;;;12.88;7.68;;;;;;;0.84;100.00;101962.53;4942563;28;20030;-77
2024/01/20 02:48:03;;;;;;;16.08;7.22;;;;;;;0.86;100.00;101965.81;4930147;28;20432;-77
2024/01/20 02:50:30;;;;;;;17.85;7.40;;;;;;;0.87;100.00;101963.00;4954483;28;20039;-77
2024/01/20 02:52:55;;;;;;;14.13;6.45;;;;;;;0.86;100.00;101976.38;4936657;28;20039;-76
2024/01/20 02:55:21;;;;;;;12.35;6.60;;;;;;;0.83;100.00;101956.44;4951988;28;20045;-79
2024/01/20 02:57:47;;;;;;;15.68;6.60;;;;;;;0.89;100.00;101957.56;4959247;28;20409;-79
2024/01/20 03:00:12;;;;;;;12.00;6.50;;;;;;;0.98;100.00;101953.88;4943138;28;20062;-77
2024/01/20 03:02:38;;;;;;;13.10;6.63;;;;;;;1.00;100.00;101968.50;4945337;28;20034;-75
2024/01/20 03:05:04;;;;;;;15.63;6.88;;;;;;;1.00;100.00;101967.69;4944752;28;20046;-75
2024/01/20 03:07:30;;;;;;;22.08;6.97;;;;;;;1.01;100.00;101971.97;4943939;28;20058;-75
2024/01/20 03:09:55;;;;;;;12.45;6.50;;;;;;;1.01;100.00;101980.69;4962469;28;20081;-75
2024/01/20 03:12:21;;;;;;;11.77;7.28;;;;;;;1.02;100.00;101971.81;4946088;28;20062;-75
2024/01/20 03:14:47;;;;;;;12.25;7.18;;;;;;;1.00;100.00;101983.53;4947350;28;20492;-76
2024/01/20 03:17:13;;;;;;;13.05;6.70;;;;;;;0.97;100.00;101984.72;4962970;28;20046;-76
2024/01/20 03:19:39;;;;;;;12.20;7.28;;;;;;;0.95;100.00;101989.34;4952143;28;20027;-74
2024/01/20 03:22:05;;;;;;;15.10;8.57;;;;;;;0.92;100.00;101980.94;4928630;28;20575;-74
2024/01/20 03:24:30;;;;;;;14.93;8.02;;;;;;;0.86;100.00;101992.19;4957830;28;20135;-75
2024/01/20 03:26:56;;;;;;;14.48;8.20;;;;;;;0.79;100.00;101987.63;4964393;28;20531;-76
2024/01/20 03:29:22;;;;;;;15.23;8.48;;;;;;;0.78;100.00;101985.16;4943478;28;20062;-74
2024/01/20 03:31:47;;;;;;;15.82;9.63;;;;;;;0.75;100.00;101990.78;4943917;28;20441;-76
2024/01/20 03:34:14;;;;;;;17.48;9.27;;;;;;;0.74;100.00;101995.22;4952714;28;20216;-76
2024/01/20 03:36:41;;;;;;;15.35;9.25;;;;;;;0.71;100.00;101992.13;4964094;28;20117;-74
2024/01/20 03:39:08;;;;;;;18.42;8.82;;;;;;;0.71;100.00;101997.41;4944436;28;20445;-75
2024/01/20 03:41:34;;;;;;;15.68;9.70;;;;;;;0.69;100.00;102002.84;4951613;28;20432;-75
2024/01/20 03:44:00;;;;;;;14.07;10.10;;;;;;;0.66;100.00;102008.44;4945151;28;20056;-73
2024/01/20 03:46:26;;;;;;;16.30;9.27;;;;;;;0.65;100.00;101996.28;4928566;28;20773;-73
2024/01/20 03:48:51;;;;;;;14.43;9.23;;;;;;;0.66;100.00;102013.72;4940573;28;20035;-74
2024/01/20 03:51:17;;;;;;;18.73;10.23;;;;;;;0.62;100.00;102007.19;4936264;28;20042;-74
2024/01/20 03:53:43;;;;;;;14.55;9.38;;;;;;;0.62;100.00;102016.91;4954201;28;20038;-75
2024/01/20 03:56:09;;;;;;;18.73;10.13;;;;;;;0.57;100.00;102017.41;4940103;28;20447;-74
2024/01/20 03:58:37;;;;;;;18.58;9.40;;;;;;;0.55;100.00;102016.78;4923097;28;20047;-74
2024/01/20 04:01:03;;;;;;;18.40;10.30;;;;;;;0.55;100.00;102022.03;4946477;28;20089;-74
2024/01/20 04:03:29;;;;;;;17.38;9.95;;;;;;;0.53;100.00;102027.47;4942567;28;20050;-72
2024/01/20 04:05:54;;;;;;;17.05;10.98;;;;;;;0.51;100.00;102026.00;4961941;28;20066;-76
2024/01/20 04:08:20;;;;;;;18.05;10.68;;;;;;;0.54;100.00;102029.13;4959245;28;20053;-76
2024/01/20 04:10:46;;;;;;;17.42;10.30;;;;;;;0.60;100.00;102042.59;4955611;28;20059;-74
2024/01/20 04:13:12;;;;;;;18.50;11.05;;;;;;;0.61;100.00;102047.72;4963349;28;20150;-74
2024/01/20 04:15:37;;;;;;;16.25;11.73;;;;;;;0.63;100.00;102040.44;4959365;28;20043;-76
2024/01/20 04:18:03;;;;;;;22.08;11.20;;;;;;;0.65;100.00;102054.28;4956525;28;20054;-75
2024/01/20 04:20:29;;;;;;;15.60;11.10;;;;;;;0.64;100.00;102057.91;4942773;28;20038;-74
2024/01/20 04:22:56;;;;;;;20.98;11.07;;;;;;;0.68;100.00;102051.31;4953623;28;20058;-74
2024/01/20 04:25:22;;;;;;;20.50;11.55;;;;;;;0.69;100.00;102052.94;4937111;28;20173;-76
2024/01/20 04:27:49;;;;;;;17.88;11.70;;;;;;;0.72;100.00;102049.94;4951990;28;20042;-78
2024/01/20 04:30:14;;;;;;;;;;;;;;;0.73;100.00;102048.97;4960849;28;20130;-74
2024/01/20 04:32:40;;;;;;;20.77;11.65;;;;;;;0.75;100.00;102049.63;4941493;28;19964;-75
2024/01/20 04:35:06;;;;;;;18.27;11.70;;;;;;;0.75;100.00;102052.25;4945185;28;20043;-75
2024/01/20 04:37:34;;;;;;;19.33;12.57;;;;;;;0.74;100.00;102061.13;4931105;28;20038;-73
2024/01/20 04:40:00;;;;;;;18.85;11.40;;;;;;;0.76;100.00;102051.25;4955733;28;20031;-75
2024/01/20 04:42:26;;;;;;;19.67;13.20;;;;;;;0.77;100.00;102055.53;4955372;28;20403;-73
2024/01/20 04:44:54;;;;;;;19.08;11.63;;;;;;;0.79;100.00;102066.72;4954266;28;20043;-73
2024/01/20 04:47:19;;;;;;;21.35;11.27;;;;;;;0.78;100.00;102054.53;4928575;28;20105;-77
2024/01/20 04:49:45;;;;;;;19.65;11.57;;;;;;;0.81;100.00;102056.84;4938715;28;20043;-72
2024/01/20 04:52:11;;;;;;;22.15;11.60;;;;;;;0.81;100.00;102059.47;4942472;28;20129;-76
2024/01/20 04:54:36;;;;;;;17.85;11.75;;;;;;;0.77;100.00;102060.81;4954349;28;20047;-73
2024/01/20 04:57:02;;;;;;;18.85;11.75;;;;;;;0.77;100.00;102060.00;4955871;28;20757;-74
2024/01/20 04:59:28;;;;;;;20.75;11.52;;;;;;;0.76;100.00;102069.72;4946644;28;20507;-73
2024/01/20 05:01:54;;;;;;;17.40;10.73;;;;;;;0.78;100.00;102065.09;4940209;28;20050;-73
2024/01/20 05:04:21;;;;;;;17.33;10.73;;;;;;;0.77;100.00;102074.00;4958635;28;20046;-74
2024/01/20 05:06:48;;;;;;;18.58;11.57;;;;;;;0.78;100.00;102059.00;4932957;28;20030;-75
2024/01/20 05:09:15;;;;;;;24.08;10.90;;;;;;;0.74;100.00;102068.22;4947529;28;20038;-74
2024/01/20 05:11:41;;;;;;;17.00;10.88;;;;;;;0.72;100.00;102065.78;4957312;28;20054;-75
2024/01/20 05:14:08;;;;;;;16.33;10.02;;;;;;;0.73;100.00;102077.97;4944259;28;20046;-75
2024/01/20 05:16:34;;;;;;;21.92;11.70;;;;;;;0.71;100.00;102073.88;4955854;28;20455;-75
2024/01/20 05:19:00;;;;;;;17.30;10.98;;;;;;;0.70;100.00;102077.50;4941402;28;20042;-74
2024/01/20 05:21:25;;;;;;;16.38;10.07;;;;;;;0.69;100.00;102068.78;4950698;28;20640;-76
2024/01/20 05:23:51;;;;;;;14.95;10.77;;;;;;;0.69;100.00;102076.69;4950199;28;20046;-74
2024/01/20 05:26:17;;;;;;;15.70;9.40;;;;;;;0.66;100.00;102087.56;4948318;28;20054;-73
2024/01/20 05:28:43;;;;;;;19.05;11.52;;;;;;;0.64;100.00;102086.91;4950827;28;20500;-74
2024/01/20 05:31:10;;;;;;;18.05;10.25;;;;;;;0.67;100.00;102089.19;4911046;28;20155;-75
2024/01/20 05:33:36;;;;;;;19.13;11.10;;;;;;;0.68;100.00;102096.13;4960603;28;20088;-73
2024/01/20 05:36:03;;;;;;;18.90;11.10;;;;;;;0.66;100.00;102097.28;4926887;28;20089;-76
2024/01/20 05:38:29;;;;;;;15.82;10.23;;;;;;;0.64;100.00;102084.28;4943331;28;20413;-72
2024/01/20 05:40:55;;;;;;;19.67;10.82;;;;;;;0.60;100.00;102092.69;4950583;28;20445;-74
2024/01/20 05:43:23;;;;;;;21.20;10.85;;;;;;;0.61;100.00;102089.91;4960378;28;20042;-75
2024/01/20 05:45:48;;;;;;;18.00;9.98;;;;;;;0.58;100.00;102100.78;4960213;28;20035;-74
2024/01/20 05:48:14;;;;;;;19.38;10.07;;;;;;;0.53;100.00;102108.34;4935886;28;20045;-74
2024/01/20 05:50:40;;;;;;;17.13;11.75;;;;;;;0.53;100.00;102116.28;4949538;28;20158;-73
2024/01/20 05:53:06;;;;;;;17.88;10.63;;;;;;;0.49;100.00;102122.88;4949810;28;20198;-73
2024/01/20 05:55:34;;;;;;;17.15;10.75;;;;;;;0.49;100.00;102123.72;4940375;28;20122;-74
2024/01/20 05:58:00;;;;;;;18.83;11.85;;;;;;;0.46;100.00;102117.94;4939378;28;20102;-73
2024/01/20 06:00:25;;;;;;;18.33;10.38;;;;;;;0.45;100.00;102116.28;4935443;28;20035;-74
2024/01/20 06:02:51;;;;;;;20.23;11.60;;;;;;;0.46;100.00;102120.56;4958332;28;20065;-73
2024/01/20 06:05:17;;;;;;;16.40;11.10;;;;;;;0.44;100.00;102120.75;4940414;28;20133;-74
2024/01/20 06:07:43;;;;;;;19.92;12.18;;;;;;;0.42;100.00;102121.91;4944741;28;20641;-73
2024/01/20 06:10:09;;;;;;;24.25;12.07;;;;;;;0.40;100.00;102118.59;4958690;28;20042;-73
2024/01/20 06:12:34;;;;;;;19.05;11.55;;;;;;;0.39;100.00;102117.78;4954010;28;20125;-74
2024/01/20 06:15:00;;;;;;;19.75;10.70;;;;;;;0.38;100.00;102129.31;4925241;28;20043;-76
2024/01/20 06:17:29;;;;;;;19.05;11.52;;;;;;;0.36;100.00;102127.88;4945088;28;20042;-73
2024/01/20 06:19:55;;;;;;;19.13;12.18;;;;;;;0.37;100.00;102140.03;4958832;28;20038;-73
2024/01/20 06:22:21;;;;;;;23.08;11.65;;;;;;;0.35;100.00;102131.50;4951968;28;20044;-75
2024/01/20 06:24:46;;;;;;;23.73;12.68;;;;;;;0.33;100.00;102141.34;4955988;28;20043;-74
2024/01/20 06:27:12;;;;;;;23.20;11.65;;;;;;;0.36;100.00;102133.13;4954869;28;20039;-73
2024/01/20 06:29:41;;;;;;;19.50;12.32;;;;;;;0.34;100.00;102130.66;4947023;28;20567;-76
2024/01/20 06:32:07;;;;;;;22.60;12.02;;;;;;;0.33;100.00;102138.72;4941905;28;20046;-73
2024/01/20 06:34:33;;;;;;;21.48;12.60;;;;;;;0.34;100.00;102145.63;4949503;28;20042;-72
2024/01/20 06:36:59;;;;;;;21.92;12.05;;;;;;;0.34;100.00;102145.63;4943201;28;20042;-72
2024/01/20 06:39:24;;;;;;;19.33;11.73;;;;;;;0.30;100.00;102133.81;4949454;28;20093;-73
2024/01/20 06:41:50;;;;;;;18.80;11.30;;;;;;;0.29;100.00;102138.25;4949858;28;20507;-75
2024/01/20 06:44:16;;;;;;;17.25;11.40;;;;;;;0.31;100.00;102132.81;4942084;28;20495;-74
2024/01/20 06:46:42;;;;;;;20.00;11.93;;;;;;;0.30;100.00;102139.06;4958224;28;20050;-73
2024/01/20 06:49:08;;;;;;;19.40;11.50;;;;;;;0.24;100.00;102130.84;4954521;28;20118;-73
2024/01/20 06:51:34;;;;;;;19.63;12.02;;;;;;;0.20;100.00;102142.72;4939335;28;20061;-72
2024/01/20 06:54:00;;;;;;;21.27;11.50;;;;;;;0.16;100.00;102140.56;4947923;28;20146;-72
2024/01/20 06:56:26;;;;;;;19.40;11.30;;;;;;;0.12;100.00;102142.72;4928120;28;20141;-73
2024/01/20 06:58:53;;;;;;;21.90;11.45;;;;;;;0.12;100.00;102139.25;4957496;28;20035;-75
2024/01/20 07:01:20;;;;;;;22.92;12.13;;;;;;;0.11;100.00;102140.25;4948242;28;20046;-74
2024/01/20 07:03:46;;;;;;;21.70;14.18;;;;;;;0.08;100.00;102145.84;4958315;28;20531;-73
2024/01/20 07:06:13;;;;;;;22.33;11.18;;;;;;;0.06;100.00;102138.09;4926960;28;20043;-72
2024/01/20 07:08:39;;;;;;;27.52;13.63;;;;;;;0.07;100.00;102150.31;4925671;28;20035;-73
2024/01/20 07:11:11;;;;;;;28.08;12.05;;;;;;;0.05;100.00;102147.00;4958281;28;20073;-72
2024/01/20 07:13:37;;;;;;;26.33;12.43;;;;;;;0.04;100.00;102148.00;4956139;28;20884;-72
2024/01/20 07:16:11;;;;;;;27.00;13.10;;;;;;;0.01;100.00;102145.69;4949732;28;20490;-73
2024/01/20 07:18:39;;;;;;;21.90;12.48;;;;;;;-0.01;100.00;102153.75;4942464;28;20111;-73
2024/01/20 07:21:06;;;;;;;21.63;11.50;;;;;;;0.04;100.00;102145.34;4956053;28;20035;-74
2024/01/20 07:23:32;;;;;;;;;;;;;;;0.04;100.00;102142.72;4947217;28;20035;-73
2024/01/20 07:25:58;;;;;;;20.85;12.25;;;;;;;0.05;100.00;102154.91;4950977;28;20398;-73
2024/01/20 07:28:27;;;;;;;24.98;10.70;;;;;;;0.05;100.00;102149.63;4954104;28;20049;-75
2024/01/20 07:30:53;;;;;;;18.33;10.57;;;;;;;0.06;100.00;102160.97;4958116;28;20038;-73
2024/01/20 07:33:19;;;;;;;20.45;11.60;;;;;;;0.04;100.00;102161.16;4954325;28;20667;-72
2024/01/20 07:35:45;;;;;;;22.17;12.23;;;;;;;0.01;100.00;102155.41;4939911;28;20089;-74
2024/01/20 07:38:11;;;;;;;22.60;11.82;;;;;;;0.00;100.00;102157.22;4956375;28;20043;-73
2024/01/20 07:40:37;;;;;;;22.35;12.05;;;;;;;0.01;100.00;102172.03;4926632;28;20063;-74
2024/01/20 07:43:03;;;;;;;22.85;11.18;;;;;;;-0.03;100.00;102176.78;4932391;28;20747;-73
2024/01/20 07:45:31;;;;;;;25.35;11.55;;;;;;;-0.02;100.00;102181.06;4939759;28;20039;-73
2024/01/20 07:48:00;;;;;;;23.88;10.98;;;;;;;0.03;100.00;102187.66;4955030;28;20559;-73
2024/01/20 07:50:26;;;;;;;20.42;10.45;;;;;;;0.08;100.00;102185.38;4941034;28;20121;-75
2024/01/20 07:52:52;;;;;;;20.75;11.05;;;;;;;0.08;100.00;102188.00;4941752;28;20125;-73
2024/01/20 07:55:18;;;;;;;26.58;11.10;;;;;;;0.09;100.00;102184.38;4949922;28;20045;-74
2024/01/20 07:57:44;;;;;;;21.83;11.50;;;;;;;0.14;100.00;102196.06;4956900;28;20160;-74
2024/01/20 08:00:11;;;;;;;22.83;11.93;;;;;;;0.19;100.00;102206.09;4942782;28;20578;-74
2024/01/20 08:02:37;;;;;;;18.98;10.13;;;;;;;0.25;100.00;102208.06;4958142;28;20035;-73
2024/01/20 08:05:03;;;;;;;;;;;;;;;0.25;100.00;102208.88;4944990;28;20041;-76
2024/01/20 08:07:29;;;;;;;21.25;10.02;;;;;;;0.25;100.00;102216.78;4962613;28;19929;-77
2024/01/20 08:09:55;;;;;;;22.75;10.52;;;;;;;0.26;100.00;102213.16;4941667;28;20133;-74
2024/01/20 08:12:21;;;;;;;20.70;9.40;;;;;;;0.32;100.00;102224.03;4953475;28;21164;-73
2024/01/20 08:14:46;;;;;;;21.60;10.20;;;;;;;0.31;100.00;102209.22;4961817;28;20031;-73
2024/01/20 08:17:12;;;;;;;20.77;10.57;;;;;;;0.33;100.00;102228.31;4947135;28;20507;-73
2024/01/20 08:19:38;;;;;;;22.02;10.20;;;;;;;0.34;100.00;102227.31;4956869;28;20035;-73
2024/01/20 08:22:05;;;;;;;21.52;10.30;;;;;;;0.41;100.00;102238.88;4931311;28;20872;-75
2024/01/20 08:24:31;;;;;;;24.88;10.45;;;;;;;0.43;100.00;102227.19;4954295;28;20058;-73
2024/01/20 08:26:56;;;;;;;22.42;10.65;;;;;;;0.44;100.00;102241.16;4955953;28;20138;-75
2024/01/20 08:29:22;;;;;;;24.33;10.70;;;;;;;0.45;100.00;102241.00;4935616;28;20104;-76
2024/01/20 08:31:48;;;;;;;26.25;11.13;;;;;;;0.42;100.00;102237.88;4953018;28;20082;-73
2024/01/20 08:34:13;;;;;;;23.10;10.43;;;;;;;0.45;100.00;102254.19;4949673;28;20411;-74
2024/01/20 08:36:39;;;;;;;22.38;10.35;;;;;;;0.44;100.00;102241.16;4952992;28;20499;-74
2024/01/20 08:39:06;;;;;;;22.38;10.48;;;;;;;0.46;100.00;102244.47;4956638;28;20034;-72
2024/01/20 08:41:32;;;;;;;20.67;9.55;;;;;;;0.46;100.00;102260.28;4957615;28;20038;-71
2024/01/20 08:43:58;;;;;;;24.77;10.43;;;;;;;0.46;100.00;102262.91;4941809;28;20374;-71
2024/01/20 08:46:25;;;;;;;24.70;11.07;;;;;;;0.44;100.00;102257.00;4943315;28;20424;-74
2024/01/20 08:48:51;;;;;;;24.25;11.35;;;;;;;0.44;100.00;102262.25;4953927;28;20043;-73
2024/01/20 08:51:19;;;;;;;27.63;11.23;;;;;;;0.46;100.00;102276.09;4934872;28;20496;-74
2024/01/20 08:53:45;;;;;;;28.30;10.27;;;;;;;0.49;100.00;102279.22;4946480;28;21618;-74
2024/01/20 08:56:11;;;;;;;23.88;10.45;;;;;;;0.52;100.00;102285.97;4954334;28;20038;-73
2024/01/20 08:58:37;;;;;;;24.95;11.15;;;;;;;0.56;100.00;102281.22;4938952;28;20046;-74
2024/01/20 09:01:04;;;;;;;24.15;11.40;;;;;;;0.60;100.00;102290.41;4958511;28;20046;-73
2024/01/20 09:03:30;;;;;;;20.50;10.32;;;;;;;0.61;100.00;102285.00;4936435;28;20746;-72
2024/01/20 09:05:55;;;;;;;21.95;9.93;;;;;;;0.63;100.00;102293.56;4922799;28;20039;-73
2024/01/20 09:08:21;;;;;;;28.55;11.57;;;;;;;0.61;100.00;102290.28;4956472;28;20862;-73
2024/01/20 09:10:47;;;;;;;20.40;10.38;;;;;;;0.67;100.00;102286.13;4951412;28;20516;-72
2024/01/20 09:13:13;;;;;;;26.70;10.57;;;;;;;0.70;100.00;102294.53;4941231;28;20077;-74
2024/01/20 09:15:38;;;;;;;21.80;9.68;;;;;;;0.70;100.00;102294.53;4952650;28;20502;-73
2024/01/20 09:18:06;;;;;;;23.00;11.23;;;;;;;0.71;100.00;102304.09;4941064;28;20035;-73
2024/01/20 09:20:32;;;;;;;20.92;9.18;;;;;;;0.75;100.00;102297.50;4956818;28;20124;-74
2024/01/20 09:22:58;;;;;;;25.48;10.50;;;;;;;0.79;100.00;102314.63;4933071;28;20058;-73
2024/01/20 09:25:23;;;;;;;25.30;9.75;;;;;;;0.81;100.00;102328.50;4943166;28;20799;-73
2024/01/20 09:27:49;;;;;;;25.70;10.40;;;;;;;0.81;100.00;102325.84;4907969;28;20672;-76
2024/01/20 09:30:16;;;;;;;20.75;9.70;;;;;;;0.82;100.00;102324.88;4939975;28;20035;-73
2024/01/20 09:32:42;;;;;;;25.65;11.07;;;;;;;0.86;100.00;102330.63;4958920;28;20038;-73
2024/01/20 09:35:08;;;;;;;28.70;11.00;;;;;;;0.91;100.00;102338.03;4956130;28;20046;-73
2024/01/20 09:37:36;;;;;;;22.98;11.07;;;;;;;0.94;100.00;102338.50;4937416;28;20030;-75
2024/01/20 09:40:05;;;;;;;22.90;11.10;;;;;;;0.99;100.00;102345.94;4955733;28;20106;-76
2024/01/20 09:42:32;;;;;;;23.08;11.00;;;;;;;1.00;100.00;102352.84;4943704;28;20038;-74
2024/01/20 09:44:58;;;;;;;25.13;12.05;;;;;;;1.01;100.00;102343.94;4957740;28;20035;-74
2024/01/20 09:47:24;;;;;;;22.52;10.50;;;;;;;0.99;100.00;102340.66;4961003;28;20027;-75
2024/01/20 09:49:50;;;;;;;22.08;10.73;;;;;;;0.93;100.00;102351.88;4952851;28;20035;-73
2024/01/20 09:52:23;;;;;;;24.30;10.30;;;;;;;0.88;100.00;102354.19;4957755;28;20484;-71
2024/01/20 09:54:59;;;;;;;27.85;10.80;;;;;;;0.91;100.00;102349.41;4938452;28;20050;-74
2024/01/20 09:57:27;;;;;;;27.38;11.38;;;;;;;0.90;100.00;102342.50;4943147;28;20039;-74
2024/01/20 09:59:54;;;;;;;22.52;10.30;;;;;;;0.88;100.00;102352.41;4920759;28;20035;-73
2024/01/20 10:02:24;;;;;;;20.38;10.23;;;;;;;0.87;100.00;102347.25;4956438;28;20122;-75
2024/01/20 10:04:55;;;;;;;22.40;10.85;;;;;;;0.87;100.00;102353.34;4950743;28;20046;-77
2024/01/20 10:07:28;;;;;;;20.77;10.82;;;;;;;0.84;100.00;102343.16;4948038;28;20038;-74
2024/01/20 10:09:54;;;;;;;25.33;10.80;;;;;;;0.86;100.00;102341.16;4943370;28;20050;-73
2024/01/20 10:12:20;;;;;;;20.13;10.45;;;;;;;0.92;100.00;102350.22;4958816;28;20040;-73
2024/01/20 10:14:45;;;;;;;22.27;9.98;;;;;;;0.99;100.00;102353.84;4961654;28;20058;-73
2024/01/20 10:17:12;;;;;;;26.52;10.38;;;;;;;1.01;100.00;102338.66;4944156;28;20043;-74
2024/01/20 10:19:38;;;;;;;23.15;9.98;;;;;;;1.06;100.00;102357.47;4961608;28;20030;-73
2024/01/20 10:22:08;;;;;;;22.13;10.45;;;;;;;1.10;100.00;102353.50;4954511;28;21030;-76
2024/01/20 10:24:34;;;;;;;21.02;10.35;;;;;;;1.15;100.00;102347.72;4956163;28;20093;-74
2024/01/20 10:27:03;;;;;;;23.27;9.75;;;;;;;1.18;100.00;102366.69;4940727;28;20511;-74
2024/01/20 10:29:29;;;;;;;20.67;9.18;;;;;;;1.18;100.00;102357.94;4939878;28;20135;-73
2024/01/20 10:31:54;;;;;;;25.52;11.23;;;;;;;1.16;100.00;102358.13;4933891;28;20523;-74
2024/01/20 10:34:20;;;;;;;18.48;9.80;;;;;;;1.16;100.00;102363.41;4932156;28;20039;-73
2024/01/20 10:36:48;;;;;;;23.23;10.48;;;;;;;1.15;100.00;102367.00;4957328;28;20043;-75
2024/01/20 10:39:17;;;;;;;20.88;9.63;;;;;;;1.16;100.00;102373.97;4950698;28;20566;-76
2024/01/20 10:41:47;;;;;;;23.92;9.65;;;;;;;1.18;100.00;102371.16;4950523;28;20038;-75
2024/01/20 10:44:16;;;;;;;20.60;9.65;;;;;;;1.21;100.00;102366.34;4955325;28;20039;-78
2024/01/20 10:46:46;;;;;;;21.80;9.85;;;;;;;1.30;100.00;102381.19;4936800;28;20039;-76
2024/01/20 10:49:17;;;;;;;21.05;9.07;;;;;;;1.36;100.00;102369.13;4941941;28;20042;-78
2024/01/20 10:51:44;;;;;;;21.02;8.98;;;;;;;1.42;100.00;102363.16;4943552;28;19922;-76
2024/01/20 10:54:12;;;;;;;22.65;10.00;;;;;;;1.48;100.00;102362.47;4955547;28;20145;-80
2024/01/20 10:56:39;;;;;;;21.67;9.40;;;;;;;1.54;100.00;102361.81;4944430;28;20042;-76
2024/01/20 10:59:13;;;;;;;21.48;9.45;;;;;;;1.63;100.00;102359.97;4954322;28;20070;-77
2024/01/20 11:01:41;;;;;;;21.95;9.10;;;;;;;1.68;100.00;102360.25;4956935;28;20043;-78
2024/01/20 11:04:07;;;;;;;20.15;9.60;;;;;;;1.70;100.00;102350.38;4943463;28;20039;-76
2024/01/20 11:06:35;;;;;;;21.85;8.80;;;;;;;1.71;100.00;102359.13;4942440;28;20520;-75
2024/01/20 11:09:04;;;;;;;21.05;9.73;;;;;;;1.60;100.00;102360.31;4947003;28;20042;-76